Time;durP1;ratioP1;P1;durP2;ratioP2;P2;SDS_P1;SDS_P2;PMS_P1;PMS_P2;Temp;Humidity;BMP_temperature;BMP_pressure;BME280_temperature;BME280_humidity;BME280_pressure;Samples;Min_cycle;Max_cycle;Signal;HPM_P1;HPM_P2
2021/05/12 06:41:48;;;;;;;2.00;1.02;;;;;;;13.70;58.74;100465.99;1834584;77;26033;-63
2021/05/12 06:44:25;;;;;;;2.62;1.25;;;;;;;13.84;58.50;100452.73;1852905;77;22212;-61
2021/05/12 06:47:08;;;;;;;2.87;1.12;;;;;;;13.96;57.81;100459.33;1815475;77;22227;-61
2021/05/12 06:49:46;;;;;;;2.90;1.20;;;;;;;14.08;57.52;100458.03;1852850;77;22222;-60
2021/05/12 06:52:23;;;;;;;1.30;1.10;;;;;;;14.22;57.38;100448.69;1820581;77;22631;-61
2021/05/12 06:55:07;;;;;;;2.65;1.32;;;;;;;14.39;57.00;100446.40;1811909;77;22617;-61
2021/05/12 07:49:47;;;;;;;3.42;1.70;;;;;;;15.48;52.02;100416.11;1814943;77;27974;-60
2021/05/12 07:52:24;;;;;;;4.67;1.47;;;;;;;15.48;52.02;100414.80;1822777;77;22246;-62
2021/05/12 07:55:02;;;;;;;3.67;1.52;;;;;;;15.52;51.97;100410.30;1822179;77;22236;-62
2021/05/12 07:57:39;;;;;;;1.80;1.50;;;;;;;15.63;52.23;100400.41;1818809;77;22242;-62
2021/05/12 08:00:15;;;;;;;3.45;1.47;;;;;;;15.69;51.78;100391.31;1828643;77;22225;-61
2021/05/12 08:05:07;;;;;;;1.70;1.60;;;;;;;15.85;51.93;100387.77;1816092;77;28123;-65
2021/05/12 08:07:50;;;;;;;2.60;1.77;;;;;;;15.93;51.37;100390.34;1814968;77;22244;-66
2021/05/12 08:10:39;;;;;;;1.72;1.47;;;;;;;15.92;50.70;100391.84;1783582;78;21629;-65
2021/05/12 08:13:16;;;;;;;3.87;1.60;;;;;;;16.02;51.05;100381.87;1810211;77;22259;-61
2021/05/12 08:15:58;;;;;;;3.15;1.95;;;;;;;16.08;51.09;100368.80;1816185;77;22247;-64
2021/05/12 08:18:35;;;;;;;2.33;2.12;;;;;;;16.15;50.76;100370.26;1808615;77;22207;-66
2021/05/12 08:21:19;;;;;;;3.05;1.60;;;;;;;16.32;51.21;100364.32;1815527;77;22187;-64
2021/05/12 08:23:56;;;;;;;1.30;1.20;;;;;;;16.62;52.04;100363.88;1817884;77;22207;-64
2021/05/12 08:26:43;;;;;;;2.20;1.77;;;;;;;16.76;50.65;100358.31;1765315;80;21503;-64
2021/05/12 08:29:20;;;;;;;3.37;1.62;;;;;;;16.88;49.26;100354.22;1837254;77;22624;-65
2021/05/12 08:31:59;;;;;;;2.17;1.60;;;;;;;16.98;50.16;100353.95;1819778;77;22190;-64
2021/05/12 08:34:46;;;;;;;1.60;1.50;;;;;;;17.08;49.91;100351.35;1770023;78;21688;-69
2021/05/12 08:37:29;;;;;;;3.12;1.70;;;;;;;17.10;48.86;100349.34;1824586;78;22173;-65
2021/05/12 08:40:08;;;;;;;3.45;1.77;;;;;;;17.04;48.53;100356.67;1815051;77;22220;-65
2021/05/12 08:42:51;;;;;;;2.85;1.70;;;;;;;17.03;49.24;100343.16;1812688;77;22242;-64
2021/05/12 08:45:29;;;;;;;5.58;1.77;;;;;;;17.07;48.84;100345.73;1819864;77;22192;-65
2021/05/12 08:48:11;;;;;;;1.98;1.30;;;;;;;17.11;48.51;100341.73;1818169;77;22653;-63
2021/05/12 08:50:53;;;;;;;3.05;1.17;;;;;;;17.13;48.01;100346.31;1815342;77;22627;-62
2021/05/12 08:53:30;;;;;;;6.25;1.57;;;;;;;17.16;47.79;100334.08;1818526;77;22252;-61
2021/05/12 08:56:07;;;;;;;3.37;1.60;;;;;;;17.29;47.64;100332.59;1825996;77;22772;-63
2021/05/12 08:58:56;;;;;;;1.30;1.20;;;;;;;17.36;48.15;100333.48;1796533;78;21633;-64
2021/05/12 09:01:33;;;;;;;4.60;1.95;;;;;;;17.57;48.76;100324.75;1820153;77;22805;-63
2021/05/12 09:04:10;;;;;;;2.47;1.50;;;;;;;17.71;47.83;100312.01;1789643;77;22728;-63
2021/05/12 09:06:49;;;;;;;4.87;1.35;;;;;;;17.79;47.29;100318.51;1818446;77;22203;-61
2021/05/12 09:09:26;;;;;;;1.45;1.35;;;;;;;17.84;46.90;100321.91;1815621;77;22235;-62
2021/05/12 09:12:04;;;;;;;2.10;1.80;;;;;;;17.77;46.47;100316.57;1824307;77;22184;-62
2021/05/12 09:14:55;;;;;;;5.28;1.72;;;;;;;17.66;46.57;100319.68;1800972;77;23328;-63
2021/05/12 09:17:38;;;;;;;7.17;1.42;;;;;;;17.56;46.51;100318.66;1819058;77;22196;-63
2021/05/12 09:20:25;;;;;;;1.75;1.60;;;;;;;17.42;46.68;100314.25;1806630;77;22214;-62
2021/05/12 09:23:16;;;;;;;2.62;1.60;;;;;;;17.33;46.88;100310.92;1821203;77;22273;-62
2021/05/12 09:25:58;;;;;;;2.47;1.70;;;;;;;17.33;47.53;100312.23;1851207;77;22422;-62
2021/05/12 09:28:35;;;;;;;2.00;1.42;;;;;;;17.37;47.92;100311.34;1824240;77;22250;-61
2021/05/12 09:31:14;;;;;;;3.45;1.32;;;;;;;17.41;47.26;100298.91;1804157;77;22203;-62
2021/05/12 09:33:52;;;;;;;2.45;1.75;;;;;;;17.40;46.82;100300.42;1828676;77;22233;-64
2021/05/12 09:36:29;;;;;;;2.70;1.35;;;;;;;17.40;46.74;100298.59;1821312;77;22256;-62
2021/05/12 09:39:13;;;;;;;6.87;1.40;;;;;;;17.43;46.45;100300.84;1815244;77;22328;-64
2021/05/12 09:41:56;;;;;;;1.32;1.22;;;;;;;17.39;46.55;100290.36;1804494;77;22235;-62
2021/05/12 09:44:33;;;;;;;5.62;2.00;;;;;;;17.38;46.63;100284.73;1817776;77;22236;-60
2021/05/12 09:47:11;;;;;;;6.25;1.60;;;;;;;17.41;46.66;100279.59;1850292;77;23449;-61
2021/05/12 09:49:54;;;;;;;2.83;1.35;;;;;;;17.44;47.09;100268.14;1812901;77;22244;-60
2021/05/12 09:52:31;;;;;;;2.15;1.65;;;;;;;17.59;47.02;100260.16;1822413;77;22713;-64
2021/05/12 09:55:14;;;;;;;3.70;1.52;;;;;;;17.81;47.61;100257.52;1824109;77;22255;-62
2021/05/12 09:58:12;;;;;;;4.17;1.80;;;;;;;18.00;46.96;100252.38;1817252;77;22678;-61
2021/05/12 10:00:51;;;;;;;4.85;1.50;;;;;;;18.16;45.94;100239.89;1819557;77;22270;-61
2021/05/12 10:03:32;;;;;;;3.15;2.00;;;;;;;18.29;44.72;100232.03;1826249;77;22195;-63
2021/05/12 10:06:09;;;;;;;5.40;1.15;;;;;;;18.41;44.92;100239.73;1810883;77;22199;-66
2021/05/12 10:08:53;;;;;;;8.00;1.80;;;;;;;18.58;44.47;100232.29;1812057;77;22175;-66
2021/05/12 10:11:26;;;;;;;3.30;1.42;;;;;;;18.80;44.22;100229.84;1811307;77;22276;-60
2021/05/12 10:14:04;;;;;;;6.50;1.98;;;;;;;18.99;42.66;100229.60;1831177;77;22231;-68
2021/05/12 10:16:42;;;;;;;9.05;2.02;;;;;;;19.18;41.98;100228.02;1806958;77;22280;-62
2021/05/12 10:19:19;;;;;;;3.00;1.37;;;;;;;19.37;41.82;100218.47;1808095;77;22600;-61
2021/05/12 10:21:59;;;;;;;6.70;1.50;;;;;;;19.54;42.02;100213.08;1819511;77;22278;-60
2021/05/12 10:24:48;;;;;;;5.00;1.30;;;;;;;19.63;41.64;100208.44;1783071;79;21570;-63
2021/05/12 10:27:27;;;;;;;3.40;1.17;;;;;;;19.81;41.21;100211.29;1811068;77;22608;-67
2021/05/12 10:30:07;;;;;;;4.37;1.60;;;;;;;19.95;41.68;100198.01;1816141;77;22194;-62
2021/05/12 10:32:56;;;;;;;4.85;1.37;;;;;;;20.00;40.02;100195.05;1706094;83;21565;-64
2021/05/12 10:35:38;;;;;;;2.65;1.85;;;;;;;19.93;39.75;100180.95;1825368;77;22618;-62
2021/05/12 10:38:32;;;;;;;2.87;1.30;;;;;;;19.82;39.40;100188.23;1807055;77;22212;-62
2021/05/12 10:41:09;;;;;;;5.08;1.42;;;;;;;19.78;40.07;100190.98;1809940;77;22252;-63
2021/05/12 10:43:46;;;;;;;2.45;1.20;;;;;;;19.80;39.55;100186.28;1821343;77;22229;-62
2021/05/12 10:46:29;;;;;;;3.20;1.67;;;;;;;19.70;39.68;100184.58;1834198;77;22223;-62
2021/05/12 10:49:22;;;;;;;4.50;1.50;;;;;;;19.64;40.31;100183.56;1752565;81;21594;-61
2021/05/12 10:52:08;;;;;;;2.17;1.32;;;;;;;19.71;39.60;100175.09;1834783;77;22630;-62
2021/05/12 10:54:48;;;;;;;6.20;1.87;;;;;;;19.67;39.90;100172.53;1823656;77;22731;-64
2021/05/12 10:57:47;;;;;;;3.05;1.82;;;;;;;19.66;41.59;100176.20;1817287;77;22600;-61
